createdAt,value
2022-08-31T00:01:08.403Z,20.70
2022-08-31T00:04:30.000Z,20.70
2022-08-31T00:07:52.959Z,20.70
2022-08-31T00:11:17.316Z,20.60
2022-08-31T00:14:38.915Z,20.60
2022-08-31T00:18:00.535Z,20.50
2022-08-31T00:21:23.039Z,20.50
2022-08-31T00:24:45.957Z,20.40
2022-08-31T00:28:08.173Z,20.40
2022-08-31T00:31:29.802Z,20.40
2022-08-31T00:34:51.624Z,20.40
2022-08-31T00:38:13.234Z,20.30
2022-08-31T00:41:38.142Z,20.30
2022-08-31T00:44:59.722Z,20.30
2022-08-31T00:48:21.301Z,20.20
2022-08-31T00:51:46.984Z,20.20
2022-08-31T00:55:11.274Z,20.20
2022-08-31T00:58:34.244Z,20.20
2022-08-31T01:01:55.930Z,20.20
2022-08-31T01:05:18.393Z,19.90
2022-08-31T01:08:40.010Z,19.40
2022-08-31T01:12:01.736Z,18.90
2022-08-31T01:15:26.807Z,18.40
2022-08-31T01:18:49.389Z,18.10
2022-08-31T01:22:16.140Z,17.80
2022-08-31T01:25:39.794Z,17.70
2022-08-31T01:29:04.038Z,17.30
2022-08-31T01:32:25.813Z,17.00
2022-08-31T01:35:47.403Z,16.90
2022-08-31T01:39:10.042Z,16.80
2022-08-31T01:42:34.487Z,16.80
2022-08-31T01:45:56.278Z,16.80
2022-08-31T01:49:18.738Z,16.80
2022-08-31T01:52:40.385Z,16.80
2022-08-31T01:56:02.235Z,16.90
2022-08-31T01:59:25.171Z,16.90
2022-08-31T02:02:46.830Z,16.90
2022-08-31T02:06:09.187Z,17.00
2022-08-31T02:09:30.774Z,17.00
2022-08-31T02:12:52.356Z,17.00
2022-08-31T02:16:15.454Z,16.90
2022-08-31T02:19:37.182Z,16.90
2022-08-31T02:22:58.838Z,16.90
2022-08-31T02:26:21.835Z,16.90
2022-08-31T02:29:43.729Z,17.00
2022-08-31T02:33:06.945Z,16.90
2022-08-31T02:36:28.537Z,16.80
2022-08-31T02:39:50.359Z,16.80
2022-08-31T02:43:12.853Z,16.80
2022-08-31T02:46:46.219Z,16.80
2022-08-31T02:50:09.557Z,16.80
2022-08-31T02:53:31.353Z,16.80
2022-08-31T02:56:52.927Z,16.80
2022-08-31T03:00:14.675Z,16.80
2022-08-31T03:03:36.299Z,16.80
2022-08-31T03:06:59.210Z,16.80
2022-08-31T03:10:22.046Z,16.80
2022-08-31T03:13:43.923Z,16.80
2022-08-31T03:17:05.521Z,16.80
2022-08-31T03:20:27.629Z,16.80
2022-08-31T03:23:50.575Z,16.80
2022-08-31T03:27:12.159Z,16.80
2022-08-31T03:30:33.889Z,16.80
2022-08-31T03:33:55.491Z,16.70
2022-08-31T03:37:17.097Z,16.70
2022-08-31T03:40:40.417Z,16.80
2022-08-31T03:44:02.311Z,16.80
2022-08-31T03:47:23.886Z,16.80
2022-08-31T03:50:49.974Z,16.80
2022-08-31T03:54:11.562Z,16.80
2022-08-31T03:57:34.782Z,16.70
2022-08-31T04:00:56.502Z,16.70
2022-08-31T04:04:18.109Z,16.60
2022-08-31T04:07:42.893Z,16.60
2022-08-31T04:11:07.772Z,16.60
2022-08-31T04:14:30.724Z,16.60
2022-08-31T04:17:52.328Z,16.60
2022-08-31T04:21:20.239Z,16.50
2022-08-31T04:24:41.815Z,16.60
2022-08-31T04:28:03.773Z,16.60
2022-08-31T04:31:27.334Z,16.70
2022-08-31T04:34:56.193Z,16.70
2022-08-31T04:38:18.285Z,16.70
2022-08-31T04:41:40.655Z,16.70
2022-08-31T04:45:02.258Z,16.60
2022-08-31T04:48:25.248Z,16.70
2022-08-31T04:51:46.827Z,16.70
2022-08-31T04:55:08.867Z,16.70
2022-08-31T04:58:30.443Z,16.70
2022-08-31T05:01:52.171Z,16.70
2022-08-31T05:05:15.238Z,16.70
2022-08-31T05:08:37.453Z,16.80
2022-08-31T05:11:59.031Z,16.70
2022-08-31T05:15:20.612Z,16.70
2022-08-31T05:18:42.970Z,16.70
2022-08-31T05:22:06.015Z,16.70
2022-08-31T05:25:27.588Z,16.70
2022-08-31T05:28:49.285Z,16.70
2022-08-31T05:32:10.856Z,16.70
2022-08-31T05:35:34.105Z,16.70
2022-08-31T05:39:00.904Z,16.70
2022-08-31T05:42:22.963Z,16.70
2022-08-31T05:45:44.519Z,16.60
2022-08-31T05:49:07.039Z,16.70
2022-08-31T05:52:28.774Z,16.70
2022-08-31T05:55:57.441Z,16.70
2022-08-31T05:59:19.154Z,16.70
2022-08-31T06:02:40.748Z,16.70
2022-08-31T06:06:02.340Z,16.70
2022-08-31T06:09:24.207Z,16.70
2022-08-31T06:12:47.173Z,16.80
2022-08-31T06:16:08.944Z,16.70
2022-08-31T06:19:30.617Z,16.80
2022-08-31T06:22:52.189Z,16.80
2022-08-31T06:26:14.888Z,16.80
2022-08-31T06:29:37.892Z,16.80
2022-08-31T06:32:59.476Z,16.70
2022-08-31T06:36:22.171Z,16.70
2022-08-31T06:39:44.423Z,16.80
2022-08-31T06:43:06.869Z,16.80
2022-08-31T06:46:32.178Z,16.80
2022-08-31T06:49:53.822Z,16.80
2022-08-31T06:53:15.382Z,16.80
2022-08-31T06:56:37.265Z,16.90
2022-08-31T07:00:00.284Z,16.90
2022-08-31T07:03:23.261Z,16.90
2022-08-31T07:06:44.959Z,17.00
2022-08-31T07:10:06.958Z,17.00
2022-08-31T07:13:28.967Z,16.90
2022-08-31T07:16:51.437Z,17.00
2022-08-31T07:20:14.467Z,17.00
2022-08-31T07:23:36.559Z,17.00
2022-08-31T07:26:59.067Z,17.00
2022-08-31T07:30:20.909Z,17.00
2022-08-31T07:33:42.522Z,17.10
2022-08-31T07:37:06.106Z,17.10
2022-08-31T07:40:27.979Z,17.10
2022-08-31T07:43:49.594Z,17.10
2022-08-31T07:47:11.262Z,17.00
2022-08-31T07:50:32.957Z,17.10
2022-08-31T07:53:55.900Z,17.20
2022-08-31T07:57:17.535Z,17.20
2022-08-31T08:00:39.139Z,17.20
2022-08-31T08:04:00.817Z,17.30
2022-08-31T08:07:22.447Z,17.30
2022-08-31T08:10:46.677Z,17.40
2022-08-31T08:14:13.592Z,17.50
2022-08-31T08:17:35.313Z,17.50
2022-08-31T08:20:56.927Z,17.50
2022-08-31T08:24:18.817Z,17.50
2022-08-31T08:27:41.855Z,17.50
2022-08-31T08:31:03.957Z,17.60
2022-08-31T08:34:32.283Z,17.60
2022-08-31T08:37:59.113Z,17.70
2022-08-31T08:41:23.258Z,17.70
2022-08-31T08:44:46.228Z,17.70
2022-08-31T08:48:09.621Z,17.70
2022-08-31T08:51:33.323Z,17.80
2022-08-31T08:54:56.149Z,17.80
2022-08-31T08:58:18.016Z,17.80
2022-08-31T09:01:41.477Z,17.80
2022-08-31T09:05:09.526Z,18.00
2022-08-31T09:08:55.251Z,18.00
2022-08-31T09:12:22.344Z,18.00
2022-08-31T09:15:48.856Z,18.10
2022-08-31T09:19:13.005Z,18.30
2022-08-31T09:22:41.342Z,18.60
2022-08-31T09:26:08.019Z,18.90
2022-08-31T09:29:30.980Z,19.30
2022-08-31T09:32:54.048Z,19.60
2022-08-31T09:36:17.536Z,19.80
2022-08-31T09:39:39.124Z,19.80
2022-08-31T09:43:02.328Z,20.00
2022-08-31T09:46:25.514Z,20.50
2022-08-31T09:49:55.014Z,21.00
2022-08-31T09:53:20.317Z,21.00
2022-08-31T09:56:49.671Z,20.90
2022-08-31T10:00:12.059Z,20.70
2022-08-31T10:03:33.795Z,20.80
2022-08-31T10:06:57.544Z,21.20
2022-08-31T10:10:30.419Z,21.10
2022-08-31T10:13:56.673Z,21.00
2022-08-31T10:17:20.325Z,20.80
2022-08-31T10:20:43.764Z,20.90
2022-08-31T10:24:10.007Z,20.80
2022-08-31T10:27:34.531Z,20.60
2022-08-31T10:30:58.824Z,20.50
2022-08-31T10:34:22.781Z,20.40
2022-08-31T10:37:48.952Z,20.40
2022-08-31T10:41:12.268Z,20.30
2022-08-31T10:44:38.762Z,20.30
2022-08-31T10:48:00.363Z,20.30
2022-08-31T10:51:24.476Z,20.10
2022-08-31T10:54:48.526Z,20.00
2022-08-31T10:58:20.273Z,20.10
2022-08-31T11:01:47.895Z,20.00
2022-08-31T11:05:17.287Z,19.80
2022-08-31T11:08:42.717Z,19.70
2022-08-31T11:12:09.401Z,19.80
2022-08-31T11:15:41.582Z,19.90
2022-08-31T11:19:18.108Z,20.00
2022-08-31T11:23:03.471Z,20.30
2022-08-31T11:26:35.334Z,20.60
2022-08-31T11:29:58.839Z,21.10
2022-08-31T11:33:23.009Z,21.30
2022-08-31T11:36:46.412Z,21.30
2022-08-31T11:40:09.920Z,21.20
2022-08-31T11:43:42.533Z,21.00
2022-08-31T11:47:05.893Z,20.80
2022-08-31T11:50:54.789Z,20.60
2022-08-31T11:54:36.667Z,20.60
2022-08-31T11:58:20.851Z,20.50
2022-08-31T12:01:44.287Z,20.50
2022-08-31T12:05:06.250Z,20.40
2022-08-31T12:08:28.627Z,20.30
2022-08-31T12:11:52.687Z,20.30
2022-08-31T12:15:18.571Z,20.30
2022-08-31T12:18:50.341Z,20.30
2022-08-31T12:22:20.153Z,20.20
2022-08-31T12:25:47.487Z,20.00
2022-08-31T12:29:17.262Z,20.00
2022-08-31T12:32:41.115Z,20.10
2022-08-31T12:36:20.434Z,20.20
2022-08-31T12:39:43.353Z,20.20
2022-08-31T12:43:08.033Z,20.50
2022-08-31T12:46:34.511Z,20.70
2022-08-31T12:50:02.153Z,20.90
2022-08-31T12:53:34.184Z,21.30
2022-08-31T12:57:02.179Z,21.70
2022-08-31T13:00:25.061Z,21.90
2022-08-31T13:03:53.875Z,22.10
2022-08-31T13:07:20.392Z,21.90
2022-08-31T13:10:41.978Z,21.90
2022-08-31T13:14:09.961Z,21.80
2022-08-31T13:17:35.746Z,21.90
2022-08-31T13:20:57.999Z,22.10
2022-08-31T13:24:23.248Z,22.00
2022-08-31T13:27:45.637Z,21.90
2022-08-31T13:31:09.133Z,22.00
2022-08-31T13:34:30.896Z,22.00
2022-08-31T13:37:54.221Z,22.00
2022-08-31T13:41:22.190Z,21.80
2022-08-31T13:44:43.782Z,21.60
2022-08-31T13:48:11.167Z,21.30
2022-08-31T13:51:34.341Z,21.00
2022-08-31T13:55:01.771Z,20.80
2022-08-31T13:58:26.043Z,20.60
2022-08-31T14:01:47.975Z,20.60
2022-08-31T14:05:10.949Z,20.70
2022-08-31T14:08:32.567Z,20.70
2022-08-31T14:11:55.452Z,20.70
2022-08-31T14:15:24.030Z,20.70
2022-08-31T14:18:46.447Z,20.70
2022-08-31T14:22:16.474Z,20.90
2022-08-31T14:25:38.068Z,21.10
2022-08-31T14:29:00.887Z,21.10
2022-08-31T14:32:22.466Z,21.20
2022-08-31T14:35:44.090Z,21.20
2022-08-31T14:39:07.016Z,21.10
2022-08-31T14:42:30.302Z,21.00
2022-08-31T14:45:51.942Z,20.80
2022-08-31T14:49:13.569Z,20.60
2022-08-31T14:52:36.192Z,20.50
2022-08-31T14:55:59.123Z,20.60
2022-08-31T14:59:21.563Z,20.90
2022-08-31T15:02:43.668Z,21.20
2022-08-31T15:06:05.433Z,21.60
2022-08-31T15:09:27.032Z,22.00
2022-08-31T15:12:49.971Z,22.50
2022-08-31T15:16:11.785Z,23.00
2022-08-31T15:19:33.773Z,22.90
2022-08-31T15:22:55.374Z,22.90
2022-08-31T15:26:17.795Z,22.70
2022-08-31T15:29:40.758Z,22.30
2022-08-31T15:33:02.360Z,21.60
2022-08-31T15:36:24.240Z,20.00
2022-08-31T15:39:45.841Z,18.80
2022-08-31T15:43:07.837Z,18.60
2022-08-31T15:46:30.956Z,18.40
2022-08-31T15:49:52.539Z,18.20
2022-08-31T15:53:14.243Z,18.20
2022-08-31T15:56:35.945Z,18.10
2022-08-31T15:59:57.909Z,18.00
2022-08-31T16:03:21.131Z,17.90
2022-08-31T16:06:42.885Z,17.90
2022-08-31T16:10:11.293Z,17.90
2022-08-31T16:13:33.785Z,17.90
2022-08-31T16:16:55.676Z,17.80
2022-08-31T16:20:18.921Z,17.80
2022-08-31T16:23:40.899Z,17.80
2022-08-31T16:27:03.545Z,17.90
2022-08-31T16:30:26.000Z,17.90
2022-08-31T16:33:47.688Z,17.90
2022-08-31T16:37:11.045Z,17.90
2022-08-31T16:40:32.845Z,18.00
2022-08-31T16:44:18.102Z,18.00
2022-08-31T16:47:36.615Z,17.90
2022-08-31T16:50:58.603Z,17.90
2022-08-31T16:54:21.661Z,17.80
2022-08-31T16:57:43.357Z,17.80
2022-08-31T17:01:08.035Z,17.70
2022-08-31T17:04:51.010Z,17.70
2022-08-31T17:08:11.566Z,17.60
2022-08-31T17:11:39.634Z,17.60
2022-08-31T17:15:01.358Z,17.60
2022-08-31T17:18:23.067Z,17.60
2022-08-31T17:21:46.149Z,17.50
2022-08-31T17:25:08.147Z,17.40
2022-08-31T17:28:31.304Z,17.30
2022-08-31T17:31:54.303Z,17.30
2022-08-31T17:35:16.178Z,17.20
2022-08-31T17:38:37.888Z,17.20
2022-08-31T17:41:59.944Z,17.20
2022-08-31T17:45:23.265Z,17.20
2022-08-31T17:48:45.030Z,17.20
2022-08-31T17:52:07.873Z,17.00
2022-08-31T17:55:29.564Z,17.00
2022-08-31T17:58:53.051Z,16.90
2022-08-31T18:02:18.029Z,16.80
2022-08-31T18:05:43.623Z,16.80
2022-08-31T18:09:05.397Z,16.70
2022-08-31T18:12:27.126Z,16.60
2022-08-31T18:15:49.230Z,16.50
2022-08-31T18:19:12.617Z,16.40
2022-08-31T18:22:34.354Z,16.40
2022-08-31T18:25:56.065Z,16.30
2022-08-31T18:29:22.664Z,16.30
2022-08-31T18:32:47.508Z,16.40
2022-08-31T18:36:11.317Z,16.30
2022-08-31T18:39:51.972Z,16.30
2022-08-31T18:43:14.107Z,16.30
2022-08-31T18:46:35.895Z,16.30
2022-08-31T18:49:57.646Z,16.30
2022-08-31T18:53:27.833Z,16.20
2022-08-31T18:56:51.365Z,16.30
2022-08-31T19:00:14.155Z,16.30
2022-08-31T19:03:35.963Z,16.30
2022-08-31T19:06:57.856Z,16.30
2022-08-31T19:10:21.538Z,16.30
2022-08-31T19:13:43.282Z,16.30
2022-08-31T19:17:05.059Z,16.30
2022-08-31T19:20:28.228Z,16.30
2022-08-31T19:23:51.503Z,16.20
2022-08-31T19:27:14.763Z,16.20
2022-08-31T19:30:37.357Z,16.10
2022-08-31T19:33:59.040Z,15.90
2022-08-31T19:37:20.767Z,15.90
2022-08-31T19:40:42.684Z,15.80
2022-08-31T19:44:08.714Z,15.80
2022-08-31T19:47:31.152Z,15.70
2022-08-31T19:50:52.873Z,15.70
2022-08-31T19:54:14.581Z,15.70
2022-08-31T19:57:36.302Z,15.70
2022-08-31T20:01:02.283Z,15.70
2022-08-31T20:04:25.356Z,15.60
2022-08-31T20:07:47.067Z,15.60
2022-08-31T20:11:10.211Z,15.60
2022-08-31T20:14:32.022Z,15.60
2022-08-31T20:17:55.075Z,15.50
2022-08-31T20:21:18.232Z,15.50
2022-08-31T20:24:44.120Z,15.40
2022-08-31T20:28:06.879Z,15.40
2022-08-31T20:31:29.341Z,15.40
2022-08-31T20:34:54.921Z,15.30
2022-08-31T20:38:17.592Z,15.30
2022-08-31T20:41:40.600Z,15.20
2022-08-31T20:45:02.341Z,15.30
2022-08-31T20:48:23.956Z,15.30
2022-08-31T20:51:47.081Z,15.20
2022-08-31T20:55:09.301Z,15.10
2022-08-31T20:58:30.903Z,15.10
2022-08-31T21:01:53.683Z,15.10
2022-08-31T21:05:37.483Z,15.00
2022-08-31T21:08:58.222Z,15.00
2022-08-31T21:12:19.817Z,15.00
2022-08-31T21:15:44.417Z,15.00
2022-08-31T21:19:09.563Z,14.90
2022-08-31T21:22:31.331Z,14.90
2022-08-31T21:25:54.588Z,14.80
2022-08-31T21:29:17.262Z,14.80
2022-08-31T21:32:38.851Z,14.70
2022-08-31T21:36:01.093Z,14.70
2022-08-31T21:39:22.994Z,14.70
2022-08-31T21:42:45.923Z,14.70
2022-08-31T21:46:08.384Z,14.60
2022-08-31T21:49:30.046Z,14.60
2022-08-31T21:52:51.777Z,14.60
2022-08-31T21:56:13.398Z,14.60
2022-08-31T21:59:36.394Z,14.50
2022-08-31T22:02:58.033Z,14.60
2022-08-31T22:06:20.587Z,14.60
2022-08-31T22:09:43.471Z,14.60
2022-08-31T22:13:05.080Z,14.60
2022-08-31T22:16:28.076Z,14.50
2022-08-31T22:19:49.692Z,14.50
2022-08-31T22:23:11.397Z,14.50
2022-08-31T22:26:36.791Z,14.40
2022-08-31T22:29:58.802Z,14.40
2022-08-31T22:33:22.270Z,14.40
2022-08-31T22:36:44.164Z,14.50
2022-08-31T22:40:11.980Z,14.50
2022-08-31T22:43:33.585Z,14.40
2022-08-31T22:46:55.578Z,14.30
2022-08-31T22:50:18.564Z,14.30
2022-08-31T22:53:41.245Z,14.30
2022-08-31T22:57:02.890Z,14.20
2022-08-31T23:00:24.483Z,14.20
2022-08-31T23:03:46.331Z,14.30
2022-08-31T23:07:09.299Z,14.30
2022-08-31T23:10:30.865Z,14.30
2022-08-31T23:13:53.756Z,14.30
2022-08-31T23:17:15.544Z,14.20
2022-08-31T23:20:37.413Z,14.20
2022-08-31T23:24:00.900Z,14.10
2022-08-31T23:27:22.510Z,14.00
2022-08-31T23:30:44.155Z,14.00
2022-08-31T23:34:06.304Z,13.90
2022-08-31T23:37:27.956Z,13.90
2022-08-31T23:40:50.952Z,13.90
2022-08-31T23:44:15.058Z,13.90
2022-08-31T23:47:37.504Z,13.90
2022-08-31T23:50:59.117Z,13.80
2022-08-31T23:54:20.715Z,13.90
2022-08-31T23:57:43.663Z,13.80
